sensor_id;sensor_type;location;lat;lon;timestamp;P1;durP1;ratioP1;P2;durP2;ratioP2
59408;SDS011;45213;32.654;-115.458;2023-02-20T00:00:32;4.32;;;1.90;;
59408;SDS011;45213;32.654;-115.458;2023-02-20T00:03:01;8.40;;;2.13;;
59408;SDS011;45213;32.654;-115.458;2023-02-20T00:05:29;6.68;;;1.90;;
59408;SDS011;45213;32.654;-115.458;2023-02-20T00:07:56;4.90;;;1.58;;
59408;SDS011;45213;32.654;-115.458;2023-02-20T00:10:22;6.28;;;2.25;;
59408;SDS011;45213;32.654;-115.458;2023-02-20T00:12:50;5.95;;;1.77;;
59408;SDS011;45213;32.654;-115.458;2023-02-20T00:15:18;5.13;;;2.10;;
59408;SDS011;45213;32.654;-115.458;2023-02-20T00:17:46;4.65;;;1.40;;
59408;SDS011;45213;32.654;-115.458;2023-02-20T00:20:13;5.95;;;1.92;;
59408;SDS011;45213;32.654;-115.458;2023-02-20T00:22:45;6.10;;;2.38;;
59408;SDS011;45213;32.654;-115.458;2023-02-20T00:25:14;9.52;;;2.80;;
59408;SDS011;45213;32.654;-115.458;2023-02-20T00:27:42;7.30;;;2.50;;
59408;SDS011;45213;32.654;-115.458;2023-02-20T00:30:14;5.15;;;2.20;;
59408;SDS011;45213;32.654;-115.458;2023-02-20T00:32:43;9.02;;;2.40;;
59408;SDS011;45213;32.654;-115.458;2023-02-20T00:35:11;11.25;;;2.65;;
59408;SDS011;45213;32.654;-115.458;2023-02-20T00:37:38;11.68;;;3.38;;
59408;SDS011;45213;32.654;-115.458;2023-02-20T00:40:05;6.60;;;2.65;;
59408;SDS011;45213;32.654;-115.458;2023-02-20T00:42:33;10.27;;;2.63;;
59408;SDS011;45213;32.654;-115.458;2023-02-20T00:44:59;11.10;;;3.20;;
59408;SDS011;45213;32.654;-115.458;2023-02-20T00:47:26;11.00;;;2.55;;
59408;SDS011;45213;32.654;-115.458;2023-02-20T00:49:52;10.15;;;4.53;;
59408;SDS011;45213;32.654;-115.458;2023-02-20T00:52:21;13.30;;;3.05;;
59408;SDS011;45213;32.654;-115.458;2023-02-20T00:54:48;10.63;;;3.25;;
59408;SDS011;45213;32.654;-115.458;2023-02-20T00:57:15;7.45;;;3.40;;
59408;SDS011;45213;32.654;-115.458;2023-02-20T00:59:42;13.57;;;3.22;;
59408;SDS011;45213;32.654;-115.458;2023-02-20T01:02:09;6.57;;;2.22;;
59408;SDS011;45213;32.654;-115.458;2023-02-20T01:04:37;11.38;;;4.13;;
59408;SDS011;45213;32.654;-115.458;2023-02-20T01:07:03;55.15;;;7.68;;
59408;SDS011;45213;32.654;-115.458;2023-02-20T01:09:30;30.95;;;4.43;;
59408;SDS011;45213;32.654;-115.458;2023-02-20T01:11:57;11.70;;;2.88;;
59408;SDS011;45213;32.654;-115.458;2023-02-20T01:14:24;7.38;;;2.80;;
59408;SDS011;45213;32.654;-115.458;2023-02-20T01:16:51;4.50;;;2.33;;
59408;SDS011;45213;32.654;-115.458;2023-02-20T01:19:20;5.32;;;2.00;;
59408;SDS011;45213;32.654;-115.458;2023-02-20T01:21:48;9.90;;;2.40;;
59408;SDS011;45213;32.654;-115.458;2023-02-20T01:24:16;5.22;;;1.90;;
59408;SDS011;45213;32.654;-115.458;2023-02-20T01:26:46;4.78;;;1.75;;
59408;SDS011;45213;32.654;-115.458;2023-02-20T01:29:14;11.70;;;2.45;;
59408;SDS011;45213;32.654;-115.458;2023-02-20T01:31:50;3.25;;;1.52;;
59408;SDS011;45213;32.654;-115.458;2023-02-20T01:34:18;4.18;;;2.03;;
59408;SDS011;45213;32.654;-115.458;2023-02-20T01:36:49;5.20;;;1.58;;
59408;SDS011;45213;32.654;-115.458;2023-02-20T01:39:18;10.25;;;1.65;;
59408;SDS011;45213;32.654;-115.458;2023-02-20T01:41:47;12.48;;;1.90;;
59408;SDS011;45213;32.654;-115.458;2023-02-20T01:44:25;14.40;;;2.88;;
59408;SDS011;45213;32.654;-115.458;2023-02-20T01:46:55;20.70;;;3.95;;
59408;SDS011;45213;32.654;-115.458;2023-02-20T01:49:40;9.48;;;3.42;;
59408;SDS011;45213;32.654;-115.458;2023-02-20T01:52:34;25.95;;;7.47;;
59408;SDS011;45213;32.654;-115.458;2023-02-20T01:57:37;16.80;;;5.90;;
59408;SDS011;45213;32.654;-115.458;2023-02-20T02:00:10;90.03;;;9.95;;
59408;SDS011;45213;32.654;-115.458;2023-02-20T02:02:41;35.97;;;6.65;;
59408;SDS011;45213;32.654;-115.458;2023-02-20T02:05:11;25.38;;;6.90;;
59408;SDS011;45213;32.654;-115.458;2023-02-20T02:07:38;24.52;;;6.60;;
59408;SDS011;45213;32.654;-115.458;2023-02-20T02:10:06;24.02;;;6.32;;
59408;SDS011;45213;32.654;-115.458;2023-02-20T02:12:35;23.30;;;7.22;;
59408;SDS011;45213;32.654;-115.458;2023-02-20T02:15:11;27.98;;;5.45;;
59408;SDS011;45213;32.654;-115.458;2023-02-20T02:17:50;20.65;;;5.47;;
59408;SDS011;45213;32.654;-115.458;2023-02-20T02:20:37;20.45;;;5.97;;
59408;SDS011;45213;32.654;-115.458;2023-02-20T02:25:55;39.20;;;8.23;;
59408;SDS011;45213;32.654;-115.458;2023-02-20T02:36:47;24.75;;;7.03;;
59408;SDS011;45213;32.654;-115.458;2023-02-20T02:52:25;25.92;;;8.18;;
59408;SDS011;45213;32.654;-115.458;2023-02-20T02:55:12;24.02;;;7.63;;
59408;SDS011;45213;32.654;-115.458;2023-02-20T02:57:42;17.38;;;6.57;;
59408;SDS011;45213;32.654;-115.458;2023-02-20T03:00:10;21.77;;;7.28;;
59408;SDS011;45213;32.654;-115.458;2023-02-20T03:02:43;31.75;;;7.30;;
59408;SDS011;45213;32.654;-115.458;2023-02-20T03:05:18;30.27;;;7.63;;
59408;SDS011;45213;32.654;-115.458;2023-02-20T03:07:51;32.92;;;7.82;;
59408;SDS011;45213;32.654;-115.458;2023-02-20T03:10:23;30.67;;;8.82;;
59408;SDS011;45213;32.654;-115.458;2023-02-20T03:12:58;20.70;;;9.05;;
59408;SDS011;45213;32.654;-115.458;2023-02-20T03:15:31;26.65;;;8.88;;
59408;SDS011;45213;32.654;-115.458;2023-02-20T03:20:47;37.38;;;9.55;;
59408;SDS011;45213;32.654;-115.458;2023-02-20T03:23:22;40.60;;;10.35;;
59408;SDS011;45213;32.654;-115.458;2023-02-20T03:26:04;105.65;;;13.50;;
59408;SDS011;45213;32.654;-115.458;2023-02-20T03:28:35;55.85;;;10.68;;
59408;SDS011;45213;32.654;-115.458;2023-02-20T03:31:07;40.75;;;9.55;;
59408;SDS011;45213;32.654;-115.458;2023-02-20T03:36:48;35.67;;;9.77;;
59408;SDS011;45213;32.654;-115.458;2023-02-20T03:39:42;31.48;;;9.85;;
59408;SDS011;45213;32.654;-115.458;2023-02-20T03:42:32;74.25;;;14.38;;
59408;SDS011;45213;32.654;-115.458;2023-02-20T03:45:30;54.88;;;12.23;;
59408;SDS011;45213;32.654;-115.458;2023-02-20T03:48:03;43.92;;;12.20;;
59408;SDS011;45213;32.654;-115.458;2023-02-20T03:50:34;156.35;;;20.92;;
59408;SDS011;45213;32.654;-115.458;2023-02-20T03:53:01;73.22;;;14.10;;
59408;SDS011;45213;32.654;-115.458;2023-02-20T03:55:29;134.85;;;19.15;;
59408;SDS011;45213;32.654;-115.458;2023-02-20T03:58:00;106.45;;;16.90;;
59408;SDS011;45213;32.654;-115.458;2023-02-20T04:00:33;109.65;;;16.00;;
59408;SDS011;45213;32.654;-115.458;2023-02-20T04:03:08;71.28;;;13.38;;
59408;SDS011;45213;32.654;-115.458;2023-02-20T04:05:43;61.22;;;12.73;;
59408;SDS011;45213;32.654;-115.458;2023-02-20T04:08:26;62.45;;;12.07;;
59408;SDS011;45213;32.654;-115.458;2023-02-20T04:11:08;77.22;;;14.98;;
59408;SDS011;45213;32.654;-115.458;2023-02-20T04:16:10;42.53;;;14.55;;
59408;SDS011;45213;32.654;-115.458;2023-02-20T04:18:38;50.10;;;13.70;;
59408;SDS011;45213;32.654;-115.458;2023-02-20T04:21:07;35.95;;;12.23;;
59408;SDS011;45213;32.654;-115.458;2023-02-20T04:23:43;68.10;;;14.80;;
59408;SDS011;45213;32.654;-115.458;2023-02-20T04:26:16;107.82;;;18.33;;
59408;SDS011;45213;32.654;-115.458;2023-02-20T04:28:47;77.38;;;15.68;;
59408;SDS011;45213;32.654;-115.458;2023-02-20T04:31:16;59.15;;;14.00;;
59408;SDS011;45213;32.654;-115.458;2023-02-20T04:33:44;48.70;;;13.32;;
59408;SDS011;45213;32.654;-115.458;2023-02-20T04:36:17;30.40;;;13.02;;
59408;SDS011;45213;32.654;-115.458;2023-02-20T04:38:43;34.83;;;13.52;;
59408;SDS011;45213;32.654;-115.458;2023-02-20T04:41:13;31.73;;;13.30;;
59408;SDS011;45213;32.654;-115.458;2023-02-20T04:43:40;28.73;;;11.60;;
59408;SDS011;45213;32.654;-115.458;2023-02-20T04:46:07;25.85;;;11.65;;
59408;SDS011;45213;32.654;-115.458;2023-02-20T04:48:34;36.97;;;12.00;;
59408;SDS011;45213;32.654;-115.458;2023-02-20T04:51:02;27.75;;;10.80;;
59408;SDS011;45213;32.654;-115.458;2023-02-20T04:53:30;37.83;;;12.45;;
59408;SDS011;45213;32.654;-115.458;2023-02-20T04:55:57;33.30;;;11.18;;
59408;SDS011;45213;32.654;-115.458;2023-02-20T04:58:25;30.42;;;10.45;;
59408;SDS011;45213;32.654;-115.458;2023-02-20T05:01:04;25.17;;;10.00;;
59408;SDS011;45213;32.654;-115.458;2023-02-20T05:03:31;22.83;;;10.23;;
59408;SDS011;45213;32.654;-115.458;2023-02-20T05:05:57;22.90;;;8.80;;
59408;SDS011;45213;32.654;-115.458;2023-02-20T05:08:24;16.35;;;7.55;;
59408;SDS011;45213;32.654;-115.458;2023-02-20T05:10:51;22.83;;;7.18;;
59408;SDS011;45213;32.654;-115.458;2023-02-20T05:13:17;15.43;;;5.53;;
59408;SDS011;45213;32.654;-115.458;2023-02-20T05:15:44;25.20;;;6.45;;
59408;SDS011;45213;32.654;-115.458;2023-02-20T05:18:10;41.25;;;6.88;;
59408;SDS011;45213;32.654;-115.458;2023-02-20T05:20:37;18.08;;;5.00;;
59408;SDS011;45213;32.654;-115.458;2023-02-20T05:23:21;18.60;;;5.63;;
59408;SDS011;45213;32.654;-115.458;2023-02-20T05:25:48;14.52;;;5.13;;
59408;SDS011;45213;32.654;-115.458;2023-02-20T05:28:15;13.15;;;4.68;;
59408;SDS011;45213;32.654;-115.458;2023-02-20T05:30:41;13.55;;;4.50;;
59408;SDS011;45213;32.654;-115.458;2023-02-20T05:33:08;13.15;;;4.68;;
59408;SDS011;45213;32.654;-115.458;2023-02-20T05:35:34;16.13;;;4.35;;
59408;SDS011;45213;32.654;-115.458;2023-02-20T05:38:04;13.80;;;4.45;;
59408;SDS011;45213;32.654;-115.458;2023-02-20T05:40:30;15.05;;;4.40;;
59408;SDS011;45213;32.654;-115.458;2023-02-20T05:42:57;8.90;;;3.83;;
59408;SDS011;45213;32.654;-115.458;2023-02-20T05:45:24;12.45;;;4.28;;
59408;SDS011;45213;32.654;-115.458;2023-02-20T05:47:50;9.38;;;4.22;;
59408;SDS011;45213;32.654;-115.458;2023-02-20T05:50:17;11.90;;;4.60;;
59408;SDS011;45213;32.654;-115.458;2023-02-20T05:52:43;5.22;;;3.47;;
59408;SDS011;45213;32.654;-115.458;2023-02-20T05:55:10;9.13;;;3.50;;
59408;SDS011;45213;32.654;-115.458;2023-02-20T05:57:36;12.32;;;3.85;;
59408;SDS011;45213;32.654;-115.458;2023-02-20T06:00:03;9.93;;;3.05;;
59408;SDS011;45213;32.654;-115.458;2023-02-20T06:02:37;8.88;;;3.30;;
59408;SDS011;45213;32.654;-115.458;2023-02-20T06:05:04;34.25;;;6.32;;
59408;SDS011;45213;32.654;-115.458;2023-02-20T06:07:32;8.25;;;4.70;;
59408;SDS011;45213;32.654;-115.458;2023-02-20T06:09:59;9.57;;;5.28;;
59408;SDS011;45213;32.654;-115.458;2023-02-20T06:12:26;9.73;;;5.78;;
59408;SDS011;45213;32.654;-115.458;2023-02-20T06:14:52;12.30;;;6.75;;
59408;SDS011;45213;32.654;-115.458;2023-02-20T06:17:19;11.48;;;7.18;;
59408;SDS011;45213;32.654;-115.458;2023-02-20T06:19:46;13.13;;;7.30;;
59408;SDS011;45213;32.654;-115.458;2023-02-20T06:22:12;13.93;;;7.15;;
59408;SDS011;45213;32.654;-115.458;2023-02-20T06:24:43;13.45;;;7.38;;
59408;SDS011;45213;32.654;-115.458;2023-02-20T06:27:12;15.50;;;6.50;;
59408;SDS011;45213;32.654;-115.458;2023-02-20T06:29:42;22.13;;;6.95;;
59408;SDS011;45213;32.654;-115.458;2023-02-20T06:32:11;13.40;;;5.53;;
59408;SDS011;45213;32.654;-115.458;2023-02-20T06:34:38;10.35;;;5.40;;
59408;SDS011;45213;32.654;-115.458;2023-02-20T06:37:04;10.85;;;5.20;;
59408;SDS011;45213;32.654;-115.458;2023-02-20T06:39:31;10.95;;;5.13;;
59408;SDS011;45213;32.654;-115.458;2023-02-20T06:41:58;7.53;;;4.93;;
59408;SDS011;45213;32.654;-115.458;2023-02-20T06:44:24;12.20;;;4.75;;
59408;SDS011;45213;32.654;-115.458;2023-02-20T06:46:51;6.88;;;3.58;;
59408;SDS011;45213;32.654;-115.458;2023-02-20T06:49:18;8.35;;;3.17;;
59408;SDS011;45213;32.654;-115.458;2023-02-20T06:51:44;6.15;;;3.28;;
59408;SDS011;45213;32.654;-115.458;2023-02-20T06:54:11;6.90;;;3.05;;
59408;SDS011;45213;32.654;-115.458;2023-02-20T06:56:38;8.88;;;3.17;;
59408;SDS011;45213;32.654;-115.458;2023-02-20T06:59:05;7.28;;;3.33;;
59408;SDS011;45213;32.654;-115.458;2023-02-20T07:01:37;8.18;;;3.22;;
59408;SDS011;45213;32.654;-115.458;2023-02-20T07:04:06;21.63;;;4.40;;
59408;SDS011;45213;32.654;-115.458;2023-02-20T07:06:35;13.60;;;3.65;;
59408;SDS011;45213;32.654;-115.458;2023-02-20T07:09:02;11.95;;;4.32;;
59408;SDS011;45213;32.654;-115.458;2023-02-20T07:11:29;14.70;;;4.75;;
59408;SDS011;45213;32.654;-115.458;2023-02-20T07:13:55;21.05;;;6.03;;
59408;SDS011;45213;32.654;-115.458;2023-02-20T07:16:23;14.10;;;6.05;;
59408;SDS011;45213;32.654;-115.458;2023-02-20T07:18:49;17.73;;;7.88;;
59408;SDS011;45213;32.654;-115.458;2023-02-20T07:21:16;15.23;;;7.97;;
59408;SDS011;45213;32.654;-115.458;2023-02-20T07:23:43;14.13;;;8.65;;
59408;SDS011;45213;32.654;-115.458;2023-02-20T07:26:20;18.13;;;9.40;;
59408;SDS011;45213;32.654;-115.458;2023-02-20T07:28:52;14.77;;;8.82;;
59408;SDS011;45213;32.654;-115.458;2023-02-20T07:31:20;15.57;;;8.18;;
59408;SDS011;45213;32.654;-115.458;2023-02-20T07:33:46;10.88;;;7.60;;
59408;SDS011;45213;32.654;-115.458;2023-02-20T07:36:13;16.10;;;6.68;;
59408;SDS011;45213;32.654;-115.458;2023-02-20T07:38:40;14.20;;;5.53;;
59408;SDS011;45213;32.654;-115.458;2023-02-20T07:41:07;9.98;;;5.55;;
59408;SDS011;45213;32.654;-115.458;2023-02-20T07:43:34;14.20;;;5.57;;
59408;SDS011;45213;32.654;-115.458;2023-02-20T07:46:01;14.50;;;5.85;;
59408;SDS011;45213;32.654;-115.458;2023-02-20T07:48:28;10.65;;;4.93;;
59408;SDS011;45213;32.654;-115.458;2023-02-20T07:50:54;7.90;;;4.75;;
59408;SDS011;45213;32.654;-115.458;2023-02-20T07:53:21;10.68;;;5.18;;
59408;SDS011;45213;32.654;-115.458;2023-02-20T07:55:47;14.50;;;5.70;;
59408;SDS011;45213;32.654;-115.458;2023-02-20T07:58:14;13.00;;;5.00;;
59408;SDS011;45213;32.654;-115.458;2023-02-20T08:00:40;7.88;;;4.90;;
59408;SDS011;45213;32.654;-115.458;2023-02-20T08:03:07;7.45;;;4.95;;
59408;SDS011;45213;32.654;-115.458;2023-02-20T08:05:34;11.98;;;5.32;;
59408;SDS011;45213;32.654;-115.458;2023-02-20T08:08:00;10.20;;;4.90;;
59408;SDS011;45213;32.654;-115.458;2023-02-20T08:10:27;10.93;;;4.70;;
59408;SDS011;45213;32.654;-115.458;2023-02-20T08:12:54;10.20;;;4.60;;
59408;SDS011;45213;32.654;-115.458;2023-02-20T08:15:21;7.80;;;4.55;;
59408;SDS011;45213;32.654;-115.458;2023-02-20T08:17:48;10.25;;;4.32;;
59408;SDS011;45213;32.654;-115.458;2023-02-20T08:20:15;6.55;;;4.43;;
59408;SDS011;45213;32.654;-115.458;2023-02-20T08:22:44;14.23;;;4.90;;
59408;SDS011;45213;32.654;-115.458;2023-02-20T08:25:12;6.60;;;4.32;;
59408;SDS011;45213;32.654;-115.458;2023-02-20T08:27:46;9.02;;;4.90;;
59408;SDS011;45213;32.654;-115.458;2023-02-20T08:30:15;9.13;;;4.57;;
59408;SDS011;45213;32.654;-115.458;2023-02-20T08:32:44;9.05;;;4.40;;
59408;SDS011;45213;32.654;-115.458;2023-02-20T08:35:11;9.55;;;4.70;;
59408;SDS011;45213;32.654;-115.458;2023-02-20T08:37:38;9.90;;;5.28;;
59408;SDS011;45213;32.654;-115.458;2023-02-20T08:40:04;6.75;;;4.55;;
59408;SDS011;45213;32.654;-115.458;2023-02-20T08:42:33;7.10;;;4.82;;
59408;SDS011;45213;32.654;-115.458;2023-02-20T08:45:00;15.15;;;4.90;;
59408;SDS011;45213;32.654;-115.458;2023-02-20T08:47:29;10.35;;;4.50;;
59408;SDS011;45213;32.654;-115.458;2023-02-20T08:49:55;9.68;;;4.47;;
59408;SDS011;45213;32.654;-115.458;2023-02-20T08:52:22;6.18;;;4.93;;
59408;SDS011;45213;32.654;-115.458;2023-02-20T08:54:48;11.75;;;5.20;;
59408;SDS011;45213;32.654;-115.458;2023-02-20T08:57:16;9.63;;;4.82;;
59408;SDS011;45213;32.654;-115.458;2023-02-20T08:59:44;12.18;;;5.22;;
59408;SDS011;45213;32.654;-115.458;2023-02-20T09:02:14;7.85;;;4.80;;
59408;SDS011;45213;32.654;-115.458;2023-02-20T09:04:44;8.48;;;5.05;;
59408;SDS011;45213;32.654;-115.458;2023-02-20T09:07:11;8.45;;;5.38;;
59408;SDS011;45213;32.654;-115.458;2023-02-20T09:09:38;10.68;;;5.70;;
59408;SDS011;45213;32.654;-115.458;2023-02-20T09:12:06;13.68;;;5.63;;
59408;SDS011;45213;32.654;-115.458;2023-02-20T09:14:33;10.43;;;5.78;;
59408;SDS011;45213;32.654;-115.458;2023-02-20T09:17:00;10.50;;;5.60;;
59408;SDS011;45213;32.654;-115.458;2023-02-20T09:19:27;11.48;;;5.88;;
59408;SDS011;45213;32.654;-115.458;2023-02-20T09:21:54;11.27;;;6.00;;
59408;SDS011;45213;32.654;-115.458;2023-02-20T09:24:20;7.85;;;5.95;;
59408;SDS011;45213;32.654;-115.458;2023-02-20T09:26:47;9.77;;;6.15;;
59408;SDS011;45213;32.654;-115.458;2023-02-20T09:29:14;14.10;;;6.22;;
59408;SDS011;45213;32.654;-115.458;2023-02-20T09:31:40;14.50;;;6.70;;
59408;SDS011;45213;32.654;-115.458;2023-02-20T09:34:07;11.85;;;6.72;;
59408;SDS011;45213;32.654;-115.458;2023-02-20T09:36:34;10.65;;;6.30;;
59408;SDS011;45213;32.654;-115.458;2023-02-20T09:39:01;10.13;;;6.75;;
59408;SDS011;45213;32.654;-115.458;2023-02-20T09:41:32;9.65;;;6.93;;
59408;SDS011;45213;32.654;-115.458;2023-02-20T09:46:46;9.77;;;6.47;;
59408;SDS011;45213;32.654;-115.458;2023-02-20T09:49:19;10.13;;;6.88;;
59408;SDS011;45213;32.654;-115.458;2023-02-20T09:51:51;13.07;;;6.82;;
59408;SDS011;45213;32.654;-115.458;2023-02-20T09:54:30;14.02;;;8.63;;
59408;SDS011;45213;32.654;-115.458;2023-02-20T09:57:02;9.85;;;8.05;;
59408;SDS011;45213;32.654;-115.458;2023-02-20T09:59:43;17.73;;;7.32;;
59408;SDS011;45213;32.654;-115.458;2023-02-20T10:02:33;11.15;;;7.18;;
59408;SDS011;45213;32.654;-115.458;2023-02-20T10:07:52;10.02;;;7.40;;
59408;SDS011;45213;32.654;-115.458;2023-02-20T10:10:39;8.88;;;6.43;;
59408;SDS011;45213;32.654;-115.458;2023-02-20T10:25:07;13.80;;;7.03;;
59408;SDS011;45213;32.654;-115.458;2023-02-20T10:27:51;9.93;;;6.30;;
59408;SDS011;45213;32.654;-115.458;2023-02-20T10:30:23;10.93;;;7.38;;
59408;SDS011;45213;32.654;-115.458;2023-02-20T10:33:25;12.73;;;6.45;;
59408;SDS011;45213;32.654;-115.458;2023-02-20T10:35:56;8.35;;;7.00;;
59408;SDS011;45213;32.654;-115.458;2023-02-20T10:38:33;7.53;;;5.60;;
59408;SDS011;45213;32.654;-115.458;2023-02-20T10:41:07;13.30;;;6.30;;
59408;SDS011;45213;32.654;-115.458;2023-02-20T10:48:55;12.90;;;6.90;;
59408;SDS011;45213;32.654;-115.458;2023-02-20T10:51:28;11.50;;;6.57;;
59408;SDS011;45213;32.654;-115.458;2023-02-20T10:54:19;10.30;;;5.85;;
59408;SDS011;45213;32.654;-115.458;2023-02-20T10:57:13;33.97;;;8.35;;
59408;SDS011;45213;32.654;-115.458;2023-02-20T11:02:43;11.48;;;6.85;;
59408;SDS011;45213;32.654;-115.458;2023-02-20T11:07:47;9.82;;;6.78;;
59408;SDS011;45213;32.654;-115.458;2023-02-20T11:10:14;10.77;;;7.28;;
59408;SDS011;45213;32.654;-115.458;2023-02-20T11:12:49;10.93;;;6.85;;
59408;SDS011;45213;32.654;-115.458;2023-02-20T11:15:19;13.80;;;7.68;;
59408;SDS011;45213;32.654;-115.458;2023-02-20T11:17:50;14.47;;;8.67;;
59408;SDS011;45213;32.654;-115.458;2023-02-20T11:22:57;18.17;;;9.30;;
59408;SDS011;45213;32.654;-115.458;2023-02-20T11:25:28;20.27;;;9.88;;
59408;SDS011;45213;32.654;-115.458;2023-02-20T11:28:09;12.55;;;8.13;;
59408;SDS011;45213;32.654;-115.458;2023-02-20T11:30:59;17.90;;;10.05;;
59408;SDS011;45213;32.654;-115.458;2023-02-20T11:33:34;15.43;;;9.73;;
59408;SDS011;45213;32.654;-115.458;2023-02-20T11:36:13;18.05;;;9.43;;
59408;SDS011;45213;32.654;-115.458;2023-02-20T11:38:48;15.65;;;9.25;;
59408;SDS011;45213;32.654;-115.458;2023-02-20T11:41:25;13.65;;;8.82;;
59408;SDS011;45213;32.654;-115.458;2023-02-20T11:46:35;13.82;;;8.60;;
59408;SDS011;45213;32.654;-115.458;2023-02-20T11:49:03;15.43;;;8.75;;
59408;SDS011;45213;32.654;-115.458;2023-02-20T11:51:43;12.52;;;8.80;;
59408;SDS011;45213;32.654;-115.458;2023-02-20T11:54:19;11.88;;;8.20;;
59408;SDS011;45213;32.654;-115.458;2023-02-20T12:07:28;11.27;;;8.25;;
59408;SDS011;45213;32.654;-115.458;2023-02-20T12:10:01;8.05;;;7.20;;
59408;SDS011;45213;32.654;-115.458;2023-02-20T12:12:31;15.50;;;8.18;;
59408;SDS011;45213;32.654;-115.458;2023-02-20T12:14:58;10.82;;;7.10;;
59408;SDS011;45213;32.654;-115.458;2023-02-20T12:20:10;11.90;;;8.15;;
59408;SDS011;45213;32.654;-115.458;2023-02-20T12:22:42;13.15;;;9.90;;
59408;SDS011;45213;32.654;-115.458;2023-02-20T12:25:23;14.00;;;10.85;;
59408;SDS011;45213;32.654;-115.458;2023-02-20T12:33:43;11.25;;;8.48;;
59408;SDS011;45213;32.654;-115.458;2023-02-20T12:36:23;15.02;;;9.82;;
59408;SDS011;45213;32.654;-115.458;2023-02-20T12:50:01;15.15;;;10.02;;
59408;SDS011;45213;32.654;-115.458;2023-02-20T13:01:12;19.52;;;8.98;;
59408;SDS011;45213;32.654;-115.458;2023-02-20T13:06:08;15.32;;;7.18;;
59408;SDS011;45213;32.654;-115.458;2023-02-20T13:08:40;14.77;;;7.00;;
59408;SDS011;45213;32.654;-115.458;2023-02-20T13:11:20;10.13;;;5.88;;
59408;SDS011;45213;32.654;-115.458;2023-02-20T13:13:56;12.07;;;6.72;;
59408;SDS011;45213;32.654;-115.458;2023-02-20T13:22:09;13.07;;;6.28;;
59408;SDS011;45213;32.654;-115.458;2023-02-20T13:24:36;11.38;;;6.43;;
59408;SDS011;45213;32.654;-115.458;2023-02-20T13:27:08;13.40;;;7.07;;
59408;SDS011;45213;32.654;-115.458;2023-02-20T13:29:36;9.27;;;6.50;;
59408;SDS011;45213;32.654;-115.458;2023-02-20T13:32:23;12.85;;;6.80;;
59408;SDS011;45213;32.654;-115.458;2023-02-20T13:34:51;11.82;;;6.97;;
59408;SDS011;45213;32.654;-115.458;2023-02-20T13:43:37;14.38;;;7.45;;
59408;SDS011;45213;32.654;-115.458;2023-02-20T13:45:42;15.30;;;8.93;;
59408;SDS011;45213;32.654;-115.458;2023-02-20T13:51:28;17.55;;;9.82;;
59408;SDS011;45213;32.654;-115.458;2023-02-20T13:56:27;16.58;;;9.80;;
59408;SDS011;45213;32.654;-115.458;2023-02-20T13:59:09;12.90;;;9.80;;
59408;SDS011;45213;32.654;-115.458;2023-02-20T14:02:21;17.63;;;9.85;;
59408;SDS011;45213;32.654;-115.458;2023-02-20T14:07:33;17.92;;;10.20;;
59408;SDS011;45213;32.654;-115.458;2023-02-20T14:10:06;16.55;;;10.63;;
59408;SDS011;45213;32.654;-115.458;2023-02-20T14:12:51;16.23;;;11.20;;
59408;SDS011;45213;32.654;-115.458;2023-02-20T14:15:32;16.23;;;11.07;;
59408;SDS011;45213;32.654;-115.458;2023-02-20T14:18:15;17.67;;;11.10;;
59408;SDS011;45213;32.654;-115.458;2023-02-20T14:20:44;23.23;;;11.25;;
59408;SDS011;45213;32.654;-115.458;2023-02-20T14:25:38;17.23;;;10.75;;
59408;SDS011;45213;32.654;-115.458;2023-02-20T14:28:12;19.75;;;11.63;;
59408;SDS011;45213;32.654;-115.458;2023-02-20T14:30:40;19.02;;;11.65;;
59408;SDS011;45213;32.654;-115.458;2023-02-20T14:33:18;24.02;;;11.65;;
59408;SDS011;45213;32.654;-115.458;2023-02-20T14:38:31;33.00;;;12.25;;
59408;SDS011;45213;32.654;-115.458;2023-02-20T14:40:59;18.50;;;11.43;;
59408;SDS011;45213;32.654;-115.458;2023-02-20T14:43:34;24.77;;;11.07;;
59408;SDS011;45213;32.654;-115.458;2023-02-20T14:46:05;27.05;;;12.23;;
59408;SDS011;45213;32.654;-115.458;2023-02-20T14:48:34;20.73;;;10.88;;
59408;SDS011;45213;32.654;-115.458;2023-02-20T14:54:02;23.75;;;11.95;;
59408;SDS011;45213;32.654;-115.458;2023-02-20T14:56:43;31.50;;;11.55;;
59408;SDS011;45213;32.654;-115.458;2023-02-20T15:01:57;22.08;;;10.15;;
59408;SDS011;45213;32.654;-115.458;2023-02-20T15:04:27;19.95;;;10.98;;
59408;SDS011;45213;32.654;-115.458;2023-02-20T15:06:59;20.85;;;12.00;;
59408;SDS011;45213;32.654;-115.458;2023-02-20T15:09:38;17.83;;;10.95;;
59408;SDS011;45213;32.654;-115.458;2023-02-20T15:12:11;22.52;;;11.73;;
59408;SDS011;45213;32.654;-115.458;2023-02-20T15:14:45;30.33;;;12.15;;
59408;SDS011;45213;32.654;-115.458;2023-02-20T15:17:27;33.55;;;11.93;;
59408;SDS011;45213;32.654;-115.458;2023-02-20T15:19:56;35.22;;;13.75;;
59408;SDS011;45213;32.654;-115.458;2023-02-20T15:22:29;24.90;;;13.88;;
59408;SDS011;45213;32.654;-115.458;2023-02-20T15:27:37;34.08;;;14.82;;
59408;SDS011;45213;32.654;-115.458;2023-02-20T15:30:11;27.15;;;13.32;;
59408;SDS011;45213;32.654;-115.458;2023-02-20T15:32:40;37.47;;;13.07;;
59408;SDS011;45213;32.654;-115.458;2023-02-20T15:35:12;39.95;;;14.73;;
59408;SDS011;45213;32.654;-115.458;2023-02-20T15:37:43;50.58;;;17.90;;
59408;SDS011;45213;32.654;-115.458;2023-02-20T15:40:18;50.20;;;23.55;;
59408;SDS011;45213;32.654;-115.458;2023-02-20T15:42:45;45.15;;;20.85;;
59408;SDS011;45213;32.654;-115.458;2023-02-20T15:45:12;51.13;;;23.42;;
59408;SDS011;45213;32.654;-115.458;2023-02-20T15:47:39;40.08;;;21.40;;
59408;SDS011;45213;32.654;-115.458;2023-02-20T15:50:06;59.35;;;23.23;;
59408;SDS011;45213;32.654;-115.458;2023-02-20T15:52:33;42.35;;;23.45;;
59408;SDS011;45213;32.654;-115.458;2023-02-20T15:55:00;61.83;;;25.10;;
59408;SDS011;45213;32.654;-115.458;2023-02-20T15:57:27;62.15;;;25.40;;
59408;SDS011;45213;32.654;-115.458;2023-02-20T15:59:53;58.25;;;24.65;;
59408;SDS011;45213;32.654;-115.458;2023-02-20T16:02:20;60.90;;;22.60;;
59408;SDS011;45213;32.654;-115.458;2023-02-20T16:04:48;39.70;;;20.63;;
59408;SDS011;45213;32.654;-115.458;2023-02-20T16:07:16;40.95;;;21.08;;
59408;SDS011;45213;32.654;-115.458;2023-02-20T16:09:44;54.67;;;22.08;;
59408;SDS011;45213;32.654;-115.458;2023-02-20T16:12:17;47.00;;;20.05;;
59408;SDS011;45213;32.654;-115.458;2023-02-20T16:14:46;39.67;;;19.92;;
59408;SDS011;45213;32.654;-115.458;2023-02-20T16:17:22;41.33;;;20.75;;
59408;SDS011;45213;32.654;-115.458;2023-02-20T16:19:53;45.10;;;19.20;;
59408;SDS011;45213;32.654;-115.458;2023-02-20T16:22:20;37.08;;;19.48;;
59408;SDS011;45213;32.654;-115.458;2023-02-20T16:24:47;37.42;;;17.73;;
59408;SDS011;45213;32.654;-115.458;2023-02-20T16:27:14;38.72;;;17.25;;
59408;SDS011;45213;32.654;-115.458;2023-02-20T16:29:43;33.30;;;13.50;;
59408;SDS011;45213;32.654;-115.458;2023-02-20T16:32:12;21.17;;;10.07;;
59408;SDS011;45213;32.654;-115.458;2023-02-20T16:34:42;24.58;;;10.70;;
59408;SDS011;45213;32.654;-115.458;2023-02-20T16:37:10;20.63;;;10.25;;
59408;SDS011;45213;32.654;-115.458;2023-02-20T16:39:37;28.77;;;11.23;;